createdAt,value
2019-02-14T00:00:59.926Z,9.65
2019-02-14T00:03:27.361Z,5.50
2019-02-14T00:05:54.963Z,6.62
2019-02-14T00:08:22.401Z,7.05
2019-02-14T00:10:49.817Z,6.15
2019-02-14T00:13:17.154Z,5.40
2019-02-14T00:15:44.480Z,6.05
2019-02-14T00:18:12.254Z,4.83
2019-02-14T00:20:40.107Z,5.05
2019-02-14T00:23:07.634Z,8.53
2019-02-14T00:25:35.057Z,4.97
2019-02-14T00:28:02.476Z,6.42
2019-02-14T00:30:29.902Z,6.53
2019-02-14T00:32:57.527Z,11.68
2019-02-14T00:35:25.475Z,7.25
2019-02-14T00:37:52.949Z,4.85
2019-02-14T00:40:20.510Z,6.40
2019-02-14T00:42:47.836Z,5.75
2019-02-14T00:45:15.262Z,4.92
2019-02-14T00:47:42.646Z,3.92
2019-02-14T00:50:10.306Z,7.08
2019-02-14T00:52:37.783Z,4.92
2019-02-14T00:55:05.670Z,5.40
2019-02-14T00:57:33.096Z,4.30
2019-02-14T01:00:00.554Z,8.70
2019-02-14T01:02:28.111Z,10.60
2019-02-14T01:04:55.857Z,5.87
2019-02-14T01:07:23.318Z,5.17
2019-02-14T01:09:50.716Z,5.80
2019-02-14T01:12:18.271Z,4.28
2019-02-14T01:14:45.634Z,7.12
2019-02-14T01:17:13.289Z,9.00
2019-02-14T01:19:40.875Z,5.62
2019-02-14T01:22:08.303Z,6.37
2019-02-14T01:24:35.728Z,5.40
2019-02-14T01:27:03.195Z,5.55
2019-02-14T01:29:30.642Z,5.30
2019-02-14T01:31:58.351Z,5.17
2019-02-14T01:34:25.906Z,4.17
2019-02-14T01:36:53.538Z,4.15
2019-02-14T01:39:20.885Z,4.15
2019-02-14T01:41:48.378Z,4.08
2019-02-14T01:44:15.831Z,6.15
2019-02-14T01:46:43.379Z,2.62
2019-02-14T01:49:10.861Z,4.17
2019-02-14T01:51:38.799Z,3.15
2019-02-14T01:54:06.188Z,5.92
2019-02-14T01:56:33.613Z,6.15
2019-02-14T01:59:01.035Z,2.95
2019-02-14T02:01:28.568Z,4.35
2019-02-14T02:03:56.707Z,4.05
2019-02-14T02:06:24.128Z,3.80
2019-02-14T02:08:51.839Z,5.58
2019-02-14T02:11:19.209Z,4.53
2019-02-14T02:13:46.663Z,9.23
2019-02-14T02:16:14.199Z,25.55
2019-02-14T02:18:41.746Z,24.70
2019-02-14T02:21:09.221Z,14.93
2019-02-14T02:23:36.640Z,14.47
2019-02-14T02:26:04.116Z,16.70
2019-02-14T02:28:31.822Z,16.95
2019-02-14T02:30:59.546Z,14.25
2019-02-14T02:33:27.064Z,10.78
2019-02-14T02:36:00.406Z,8.60
2019-02-14T02:38:24.255Z,6.28
2019-02-14T02:40:51.715Z,6.03
2019-02-14T02:43:19.263Z,7.33
2019-02-14T02:45:46.993Z,4.67
2019-02-14T02:48:14.448Z,5.47
2019-02-14T02:50:42.614Z,3.95
2019-02-14T02:53:10.104Z,6.72
2019-02-14T02:55:37.828Z,5.62
2019-02-14T02:58:05.286Z,6.30
2019-02-14T03:00:32.744Z,6.75
2019-02-14T03:03:00.094Z,6.60
2019-02-14T03:05:27.862Z,4.05
2019-02-14T03:07:55.579Z,6.10
2019-02-14T03:10:23.079Z,7.60
2019-02-14T03:12:50.740Z,11.83
2019-02-14T03:15:18.203Z,3.87
2019-02-14T03:17:46.169Z,3.17
2019-02-14T03:20:14.013Z,4.08
2019-02-14T03:22:41.380Z,7.92
2019-02-14T03:25:14.054Z,5.30
2019-02-14T03:27:41.491Z,6.75
2019-02-14T03:30:09.484Z,4.10
2019-02-14T03:32:36.894Z,5.92
2019-02-14T03:35:04.445Z,4.55
2019-02-14T03:37:31.859Z,3.52
2019-02-14T03:39:59.461Z,5.95
2019-02-14T03:42:26.774Z,4.03
2019-02-14T03:44:54.310Z,6.22
2019-02-14T03:47:21.776Z,8.75
2019-02-14T03:49:49.465Z,4.12
2019-02-14T03:52:16.826Z,7.22
2019-02-14T03:54:44.282Z,5.20
2019-02-14T03:57:12.233Z,5.83
2019-02-14T03:59:39.638Z,8.38
2019-02-14T04:02:07.076Z,3.10
2019-02-14T04:04:34.785Z,3.55
2019-02-14T04:07:02.210Z,5.37
2019-02-14T04:09:29.669Z,4.05
2019-02-14T04:11:57.119Z,5.60
2019-02-14T04:14:24.566Z,2.87
2019-02-14T04:16:51.917Z,6.45
2019-02-14T04:19:19.876Z,6.37
2019-02-14T04:21:47.594Z,4.20
2019-02-14T04:24:15.175Z,9.60
2019-02-14T04:26:42.951Z,5.62
2019-02-14T04:29:10.370Z,5.58
2019-02-14T04:31:37.790Z,5.22
2019-02-14T04:34:05.512Z,4.72
2019-02-14T04:36:36.090Z,7.35
2019-02-14T04:39:02.540Z,4.55
2019-02-14T04:41:29.964Z,7.42
2019-02-14T04:43:57.450Z,6.10
2019-02-14T04:46:25.156Z,4.90
2019-02-14T04:48:52.549Z,3.55
2019-02-14T04:51:20.282Z,7.65
2019-02-14T04:53:47.719Z,7.78
2019-02-14T04:56:15.340Z,2.37
2019-02-14T04:58:43.170Z,5.47
2019-02-14T05:01:10.639Z,4.47
2019-02-14T05:03:38.089Z,2.17
2019-02-14T05:06:05.511Z,2.50
2019-02-14T05:08:32.869Z,7.92
2019-02-14T05:11:00.555Z,4.67
2019-02-14T05:13:28.226Z,3.55
2019-02-14T05:15:55.686Z,4.05
2019-02-14T05:18:23.159Z,3.35
2019-02-14T05:20:50.581Z,3.40
2019-02-14T05:23:18.171Z,5.03
2019-02-14T05:25:45.603Z,5.08
2019-02-14T05:28:12.970Z,3.10
2019-02-14T05:30:40.398Z,2.15
2019-02-14T05:33:07.706Z,4.83
2019-02-14T05:35:35.395Z,2.00
2019-02-14T05:38:02.835Z,3.87
2019-02-14T05:40:30.263Z,3.25
2019-02-14T05:42:57.692Z,3.87
2019-02-14T05:45:25.042Z,4.72
2019-02-14T05:47:52.512Z,3.25
2019-02-14T05:50:19.936Z,5.50
2019-02-14T05:52:47.704Z,6.92
2019-02-14T05:55:15.191Z,3.40
2019-02-14T05:57:42.623Z,4.45
2019-02-14T06:00:11.373Z,4.58
2019-02-14T06:02:39.083Z,4.53
2019-02-14T06:05:06.641Z,23.52
2019-02-14T06:07:34.406Z,18.12
2019-02-14T06:10:01.888Z,17.52
2019-02-14T06:12:29.590Z,9.03
2019-02-14T06:14:57.005Z,15.23
2019-02-14T06:17:24.459Z,12.37
2019-02-14T06:19:51.854Z,8.58
2019-02-14T06:22:19.378Z,6.25
2019-02-14T06:24:46.898Z,5.92
2019-02-14T06:27:15.227Z,4.65
2019-02-14T06:29:43.120Z,3.17
2019-02-14T06:32:11.277Z,3.22
2019-02-14T06:34:39.188Z,3.87
2019-02-14T06:37:09.719Z,4.92
2019-02-14T06:39:36.225Z,2.58
2019-02-14T06:42:03.550Z,4.80
2019-02-14T06:44:31.125Z,2.60
2019-02-14T06:46:58.587Z,2.95
2019-02-14T06:49:26.035Z,5.28
2019-02-14T06:51:53.670Z,6.95
2019-02-14T06:54:21.362Z,2.67
2019-02-14T06:56:48.714Z,2.90
2019-02-14T06:59:16.596Z,3.12
2019-02-14T07:01:44.517Z,3.02
2019-02-14T07:04:11.989Z,8.93
2019-02-14T07:06:39.608Z,24.18
2019-02-14T07:09:07.126Z,22.75
2019-02-14T07:11:34.828Z,14.23
2019-02-14T07:14:02.601Z,9.65
2019-02-14T07:16:30.031Z,7.72
2019-02-14T07:18:57.785Z,6.75
2019-02-14T07:21:25.478Z,8.53
2019-02-14T07:23:52.951Z,5.30
2019-02-14T07:26:20.379Z,3.35
2019-02-14T07:28:47.875Z,5.05
2019-02-14T07:31:15.348Z,4.10
2019-02-14T07:33:42.781Z,4.35
2019-02-14T07:36:10.181Z,3.80
2019-02-14T07:38:37.546Z,4.62
2019-02-14T07:41:05.213Z,4.42
2019-02-14T07:43:32.845Z,8.68
2019-02-14T07:46:00.267Z,6.10
2019-02-14T07:48:28.012Z,7.62
2019-02-14T07:50:55.431Z,5.37
2019-02-14T07:53:23.171Z,9.38
2019-02-14T07:55:50.840Z,12.50
2019-02-14T07:58:18.197Z,13.25
2019-02-14T08:00:45.656Z,17.67
2019-02-14T08:03:13.089Z,9.58
2019-02-14T08:05:40.523Z,9.65
2019-02-14T08:08:08.008Z,12.33
2019-02-14T08:10:35.452Z,13.68
2019-02-14T08:13:03.010Z,14.45
2019-02-14T08:15:30.378Z,14.35
2019-02-14T08:17:57.810Z,14.07
2019-02-14T08:20:25.268Z,9.23
2019-02-14T08:22:52.790Z,8.83
2019-02-14T08:25:20.283Z,8.95
2019-02-14T08:27:47.821Z,10.35
2019-02-14T08:30:15.361Z,8.43
2019-02-14T08:32:42.886Z,9.35
2019-02-14T08:35:10.388Z,8.83
2019-02-14T08:37:44.927Z,7.95
2019-02-14T08:40:09.813Z,7.87
2019-02-14T08:42:37.841Z,8.90
2019-02-14T08:45:06.707Z,7.08
2019-02-14T08:47:34.117Z,12.25
2019-02-14T08:50:01.637Z,10.18
2019-02-14T08:52:29.158Z,7.55
2019-02-14T08:54:56.633Z,6.67
2019-02-14T08:57:24.505Z,8.63
2019-02-14T08:59:52.036Z,8.15
2019-02-14T09:02:19.540Z,11.78
2019-02-14T09:04:47.055Z,10.20
2019-02-14T09:07:14.506Z,11.00
2019-02-14T09:09:41.954Z,23.25
2019-02-14T09:12:09.897Z,15.48
2019-02-14T09:14:37.359Z,9.38
2019-02-14T09:17:05.206Z,12.58
2019-02-14T09:19:33.419Z,14.07
2019-02-14T09:22:01.756Z,15.85
2019-02-14T09:24:29.400Z,13.08
2019-02-14T09:26:57.540Z,13.88
2019-02-14T09:29:25.360Z,13.05
2019-02-14T09:31:52.781Z,17.25
2019-02-14T09:34:20.374Z,13.38
2019-02-14T09:36:47.828Z,10.68
2019-02-14T09:39:15.597Z,14.85
2019-02-14T09:41:43.015Z,9.15
2019-02-14T09:44:10.731Z,9.83
2019-02-14T09:46:38.102Z,9.75
2019-02-14T09:49:05.543Z,10.55
2019-02-14T09:51:33.430Z,8.78
2019-02-14T09:54:00.903Z,11.20
2019-02-14T09:56:29.769Z,12.05
2019-02-14T09:58:59.851Z,11.22
2019-02-14T10:01:27.857Z,12.63
2019-02-14T10:03:55.327Z,10.50
2019-02-14T10:06:23.085Z,7.67
2019-02-14T10:08:50.572Z,11.70
2019-02-14T10:11:18.179Z,11.38
2019-02-14T10:13:45.902Z,8.83
2019-02-14T10:16:13.233Z,9.73
2019-02-14T10:18:40.987Z,9.63
2019-02-14T10:21:08.412Z,9.35
2019-02-14T10:23:35.925Z,12.90
2019-02-14T10:26:03.415Z,10.82
2019-02-14T10:28:31.134Z,11.00
2019-02-14T10:30:58.905Z,11.57
2019-02-14T10:33:26.374Z,16.17
2019-02-14T10:35:53.764Z,13.70
2019-02-14T10:38:22.549Z,11.78
2019-02-14T10:40:50.629Z,13.68
2019-02-14T10:43:18.060Z,11.43
2019-02-14T10:45:45.567Z,16.60
2019-02-14T10:48:13.006Z,12.13
2019-02-14T10:50:40.476Z,12.65
2019-02-14T10:53:07.894Z,13.58
2019-02-14T10:55:35.796Z,14.53
2019-02-14T10:58:03.220Z,14.03
2019-02-14T11:00:31.333Z,11.18
2019-02-14T11:02:59.336Z,13.62
2019-02-14T11:05:27.318Z,13.93
2019-02-14T11:07:54.766Z,17.20
2019-02-14T11:10:22.660Z,14.00
2019-02-14T11:12:50.863Z,12.50
2019-02-14T11:15:19.095Z,13.65
2019-02-14T11:17:48.708Z,17.45
2019-02-14T11:20:18.243Z,14.35
2019-02-14T11:22:49.165Z,14.30
2019-02-14T11:25:20.420Z,12.60
2019-02-14T11:27:47.919Z,10.88
2019-02-14T11:30:15.309Z,16.80
2019-02-14T11:32:42.952Z,18.20
2019-02-14T11:35:10.467Z,16.27
2019-02-14T11:37:38.146Z,14.55
2019-02-14T11:40:06.864Z,11.25
2019-02-14T11:42:34.630Z,15.28
2019-02-14T11:45:02.095Z,18.15
2019-02-14T11:47:29.551Z,17.62
2019-02-14T11:49:57.313Z,12.00
2019-02-14T11:52:24.810Z,12.20
2019-02-14T11:54:52.685Z,17.98
2019-02-14T11:57:20.461Z,18.00
2019-02-14T11:59:47.928Z,14.73
2019-02-14T12:02:15.351Z,18.32
2019-02-14T12:04:42.846Z,14.35
2019-02-14T12:07:10.212Z,14.07
2019-02-14T12:09:38.139Z,14.83
2019-02-14T12:12:05.579Z,16.95
2019-02-14T12:14:33.376Z,13.85
2019-02-14T12:17:00.963Z,17.42
2019-02-14T12:19:28.438Z,13.85
2019-02-14T12:21:56.378Z,16.75
2019-02-14T12:24:23.851Z,16.07
2019-02-14T12:26:52.087Z,14.03
2019-02-14T12:29:19.580Z,14.43
2019-02-14T12:31:47.249Z,20.12
2019-02-14T12:34:14.657Z,13.88
2019-02-14T12:36:42.477Z,14.38
2019-02-14T12:39:11.706Z,12.18
2019-02-14T12:41:39.350Z,15.58
2019-02-14T12:44:06.908Z,15.05
2019-02-14T12:46:38.560Z,16.82
2019-02-14T12:49:06.227Z,16.55
2019-02-14T12:51:34.284Z,15.50
2019-02-14T12:54:02.939Z,12.28
2019-02-14T12:56:30.617Z,16.27
2019-02-14T12:58:59.419Z,17.12
2019-02-14T13:01:26.845Z,16.37
2019-02-14T13:03:54.314Z,14.10
2019-02-14T13:06:22.841Z,14.03
2019-02-14T13:08:50.565Z,16.17
2019-02-14T13:11:18.392Z,14.18
2019-02-14T13:13:50.168Z,15.50
2019-02-14T13:16:15.263Z,13.08
2019-02-14T13:18:42.722Z,16.87
2019-02-14T13:21:10.332Z,16.05
2019-02-14T13:23:38.549Z,15.03
2019-02-14T13:26:06.031Z,15.20
2019-02-14T13:28:33.493Z,16.17
2019-02-14T13:31:01.110Z,16.82
2019-02-14T13:33:28.622Z,12.13
2019-02-14T13:35:56.120Z,15.72
2019-02-14T13:38:23.666Z,11.40
2019-02-14T13:40:51.172Z,14.33
2019-02-14T13:43:18.920Z,17.10
2019-02-14T13:45:46.458Z,14.38
2019-02-14T13:48:13.935Z,13.75
2019-02-14T13:50:41.683Z,13.95
2019-02-14T13:53:09.228Z,13.35
2019-02-14T13:55:37.132Z,11.65
2019-02-14T13:58:04.798Z,14.53
2019-02-14T14:00:32.300Z,15.63
2019-02-14T14:02:59.849Z,14.83
2019-02-14T14:05:27.330Z,12.35
2019-02-14T14:07:54.874Z,14.60
2019-02-14T14:10:22.567Z,14.10
2019-02-14T14:12:50.372Z,12.75
2019-02-14T14:15:18.279Z,14.25
2019-02-14T14:17:45.798Z,10.30
2019-02-14T14:20:13.361Z,11.73
2019-02-14T14:22:40.909Z,14.23
2019-02-14T14:25:08.427Z,11.18
2019-02-14T14:27:35.940Z,14.60
2019-02-14T14:30:04.194Z,12.35
2019-02-14T14:32:32.127Z,12.00
2019-02-14T14:34:59.722Z,10.63
2019-02-14T14:37:27.262Z,11.50
2019-02-14T14:39:54.923Z,11.00
2019-02-14T14:42:40.820Z,12.93
2019-02-14T14:45:10.856Z,11.12
2019-02-14T14:47:38.478Z,12.82
2019-02-14T14:50:06.023Z,13.85
2019-02-14T14:52:33.568Z,14.70
2019-02-14T14:55:01.238Z,11.28
2019-02-14T14:57:28.726Z,11.73
2019-02-14T14:59:59.190Z,15.05
2019-02-14T15:02:26.966Z,11.70
2019-02-14T15:04:54.855Z,13.65
2019-02-14T15:07:24.990Z,12.25
2019-02-14T15:10:33.485Z,11.70
2019-02-14T15:13:01.606Z,16.40
2019-02-14T15:15:29.334Z,15.15
2019-02-14T15:17:56.830Z,14.98
2019-02-14T15:20:33.194Z,16.10
2019-02-14T15:22:59.050Z,15.38
2019-02-14T15:25:26.686Z,15.30
2019-02-14T15:27:54.802Z,13.00
2019-02-14T15:30:22.132Z,18.77
2019-02-14T15:32:49.624Z,18.40
2019-02-14T15:35:18.297Z,13.68
2019-02-14T15:37:47.330Z,16.05
2019-02-14T15:40:17.805Z,14.75
2019-02-14T15:42:45.342Z,10.70
2019-02-14T15:45:13.074Z,16.52
2019-02-14T15:47:40.643Z,15.48
2019-02-14T15:50:08.859Z,11.88
2019-02-14T15:52:36.566Z,18.52
2019-02-14T15:55:04.035Z,13.80
2019-02-14T15:57:31.858Z,14.98
2019-02-14T15:59:59.584Z,18.80
2019-02-14T16:02:28.571Z,11.18
2019-02-14T16:04:56.486Z,12.15
2019-02-14T16:07:23.952Z,12.45
2019-02-14T16:09:51.634Z,14.00
2019-02-14T16:12:20.127Z,11.35
2019-02-14T16:14:49.103Z,9.58
2019-02-14T16:17:16.632Z,9.93
2019-02-14T16:19:44.028Z,11.68
2019-02-14T16:22:11.706Z,14.85
2019-02-14T16:24:41.221Z,11.65
2019-02-14T16:27:08.607Z,11.18
2019-02-14T16:29:36.050Z,13.70
2019-02-14T16:32:03.662Z,9.93
2019-02-14T16:34:31.384Z,10.25
2019-02-14T16:36:58.800Z,9.73
2019-02-14T16:39:26.356Z,13.00
2019-02-14T16:41:53.786Z,12.23
2019-02-14T16:44:21.334Z,10.18
2019-02-14T16:46:49.072Z,11.97
2019-02-14T16:49:16.846Z,12.63
2019-02-14T16:51:44.279Z,14.23
2019-02-14T16:54:12.435Z,9.38
2019-02-14T16:56:39.894Z,8.90
2019-02-14T16:59:07.345Z,10.75
2019-02-14T17:01:34.926Z,10.82
2019-02-14T17:04:02.603Z,10.48
2019-02-14T17:06:30.062Z,9.28
2019-02-14T17:08:57.920Z,9.70
2019-02-14T17:11:25.490Z,8.58
2019-02-14T17:13:53.187Z,9.70
2019-02-14T17:16:20.939Z,7.70
2019-02-14T17:18:48.358Z,8.25
2019-02-14T17:21:16.237Z,8.43
2019-02-14T17:23:43.758Z,8.90
2019-02-14T17:26:11.297Z,6.58
2019-02-14T17:28:39.127Z,7.70
2019-02-14T17:31:06.885Z,11.80
2019-02-14T17:33:34.648Z,6.28
2019-02-14T17:36:02.102Z,7.85
2019-02-14T17:38:29.670Z,7.87
2019-02-14T17:40:57.320Z,10.32
2019-02-14T17:43:25.175Z,8.58
2019-02-14T17:45:52.895Z,6.37
2019-02-14T17:48:20.344Z,12.88
2019-02-14T17:50:47.799Z,8.15
2019-02-14T17:53:15.200Z,9.65
2019-02-14T17:55:43.079Z,8.20
2019-02-14T17:58:11.463Z,9.25
2019-02-14T18:00:40.604Z,6.47
2019-02-14T18:03:08.202Z,7.87
2019-02-14T18:05:36.175Z,12.20
2019-02-14T18:08:03.625Z,8.33
2019-02-14T18:10:31.299Z,11.53
2019-02-14T18:12:58.862Z,12.33
2019-02-14T18:15:26.361Z,8.25
2019-02-14T18:17:54.299Z,12.28
2019-02-14T18:20:22.358Z,9.48
2019-02-14T18:22:50.192Z,10.10
2019-02-14T18:25:17.812Z,11.08
2019-02-14T18:27:45.412Z,11.03
2019-02-14T18:30:13.283Z,10.23
2019-02-14T18:32:41.059Z,10.30
2019-02-14T18:35:09.502Z,10.10
2019-02-14T18:37:37.216Z,9.58
2019-02-14T18:40:05.677Z,10.48
2019-02-14T18:42:50.397Z,11.30
2019-02-14T18:45:20.624Z,13.38
2019-02-14T18:47:48.624Z,11.25
2019-02-14T18:50:16.257Z,8.38
2019-02-14T18:52:55.285Z,8.90
2019-02-14T18:55:23.398Z,9.25
2019-02-14T18:57:50.937Z,13.88
2019-02-14T19:00:18.457Z,12.30
2019-02-14T19:02:46.399Z,11.73
2019-02-14T19:05:14.219Z,10.00
2019-02-14T19:07:41.596Z,12.58
2019-02-14T19:10:10.631Z,11.08
2019-02-14T19:12:38.024Z,10.58
2019-02-14T19:15:06.742Z,12.50
2019-02-14T19:17:34.105Z,8.85
2019-02-14T19:20:01.831Z,11.93
2019-02-14T19:22:29.420Z,10.58
2019-02-14T19:24:57.169Z,11.95
2019-02-14T19:27:24.648Z,11.53
2019-02-14T19:29:52.416Z,9.90
2019-02-14T19:32:19.917Z,18.30
2019-02-14T19:34:47.489Z,10.38
2019-02-14T19:37:15.515Z,12.18
2019-02-14T19:39:43.320Z,11.43
2019-02-14T19:42:11.277Z,12.40
2019-02-14T19:44:38.677Z,11.03
2019-02-14T19:47:06.155Z,13.05
2019-02-14T19:49:35.626Z,10.82
2019-02-14T19:52:03.368Z,11.60
2019-02-14T19:54:30.837Z,12.65
2019-02-14T19:56:58.307Z,11.48
2019-02-14T19:59:29.186Z,9.38
2019-02-14T20:01:56.617Z,12.33
2019-02-14T20:04:24.272Z,12.68
2019-02-14T20:06:51.699Z,10.58
2019-02-14T20:09:19.238Z,11.33
2019-02-14T20:11:46.698Z,12.85
2019-02-14T20:14:14.142Z,11.63
2019-02-14T20:16:41.599Z,11.20
2019-02-14T20:19:09.399Z,8.70
2019-02-14T20:21:36.885Z,9.45
2019-02-14T20:24:04.351Z,12.18
2019-02-14T20:26:31.672Z,10.25
2019-02-14T20:28:59.044Z,10.55
2019-02-14T20:31:26.518Z,11.50
2019-02-14T20:33:54.065Z,11.10
2019-02-14T20:36:21.577Z,12.33
2019-02-14T20:41:46.393Z,9.03
2019-02-14T20:44:14.177Z,11.00
2019-02-14T20:46:41.646Z,10.15
2019-02-14T20:49:09.145Z,8.75
2019-02-14T20:51:38.694Z,13.85
2019-02-14T20:54:05.870Z,11.48
2019-02-14T20:56:33.405Z,11.57
2019-02-14T20:59:00.970Z,8.83
2019-02-14T21:01:28.421Z,11.85
2019-02-14T21:03:56.378Z,16.23
2019-02-14T21:14:32.486Z,11.25
2019-02-14T21:17:01.463Z,10.35
2019-02-14T21:19:30.117Z,11.90
2019-02-14T21:22:01.602Z,10.18
2019-02-14T21:24:26.784Z,10.70
2019-02-14T21:26:54.257Z,13.05
2019-02-14T21:29:21.703Z,9.85
2019-02-14T21:31:50.428Z,8.68
2019-02-14T21:34:19.317Z,10.15
2019-02-14T21:36:48.281Z,12.07
2019-02-14T21:39:15.821Z,10.15
2019-02-14T21:41:43.302Z,8.95
2019-02-14T21:44:10.772Z,11.45
2019-02-14T21:46:38.245Z,14.13
2019-02-14T21:49:06.058Z,12.18
2019-02-14T21:51:33.804Z,13.75
2019-02-14T21:54:01.898Z,12.37
2019-02-14T21:56:29.423Z,10.55
2019-02-14T21:58:56.901Z,15.35
2019-02-14T22:01:26.550Z,13.15
2019-02-14T22:03:53.978Z,11.60
2019-02-14T22:06:21.451Z,9.65
2019-02-14T22:08:48.939Z,13.78
2019-02-14T22:11:17.525Z,12.03
2019-02-14T22:13:45.256Z,10.53
2019-02-14T22:16:12.742Z,10.18
2019-02-14T22:18:40.480Z,12.10
2019-02-14T22:21:08.203Z,15.43
2019-02-14T22:23:35.690Z,14.23
2019-02-14T22:26:03.154Z,11.55
2019-02-14T22:28:30.582Z,10.93
2019-02-14T22:30:58.042Z,15.78
2019-02-14T22:33:25.597Z,12.00
2019-02-14T22:35:52.997Z,13.83
2019-02-14T22:38:20.602Z,12.37
2019-02-14T22:40:48.026Z,9.98
2019-02-14T22:43:15.435Z,11.10
2019-02-14T22:45:43.059Z,13.85
2019-02-14T22:48:10.655Z,12.53
2019-02-14T22:50:38.711Z,10.10
2019-02-14T22:53:07.363Z,12.28
2019-02-14T22:55:34.819Z,10.72
2019-02-14T22:58:02.912Z,10.10
2019-02-14T23:00:37.659Z,14.70
2019-02-14T23:03:05.373Z,11.40
2019-02-14T23:05:32.773Z,13.68
2019-02-14T23:08:00.426Z,12.70
2019-02-14T23:10:28.194Z,12.73
2019-02-14T23:12:56.290Z,13.88
2019-02-14T23:15:23.837Z,12.50
2019-02-14T23:17:51.315Z,13.22
2019-02-14T23:20:18.890Z,13.45
2019-02-14T23:22:46.342Z,10.90
2019-02-14T23:25:14.140Z,10.43
2019-02-14T23:27:41.768Z,14.38
2019-02-14T23:30:09.493Z,13.50
2019-02-14T23:32:37.271Z,11.15
2019-02-14T23:35:04.860Z,11.28
2019-02-14T23:37:32.390Z,12.07
2019-02-14T23:40:00.276Z,9.48
2019-02-14T23:42:27.608Z,13.35
2019-02-14T23:44:55.303Z,11.55
2019-02-14T23:47:22.903Z,13.50
2019-02-14T23:49:50.360Z,8.68
2019-02-14T23:52:18.192Z,9.55
2019-02-14T23:54:45.602Z,8.95
2019-02-14T23:57:13.047Z,11.18
2019-02-14T23:59:40.670Z,12.85
